sensor_id;sensor_type;location;lat;lon;timestamp;P1;durP1;ratioP1;P2;durP2;ratioP2
54937;SDS011;52756;52.826;6.214;2024-03-08T00:00:07;29.10;;;18.23;;
54937;SDS011;52756;52.826;6.214;2024-03-08T00:02:37;30.10;;;17.83;;
54937;SDS011;52756;52.826;6.214;2024-03-08T00:05:06;31.80;;;18.00;;
54937;SDS011;52756;52.826;6.214;2024-03-08T00:07:34;28.40;;;18.00;;
54937;SDS011;52756;52.826;6.214;2024-03-08T00:10:01;31.97;;;19.47;;
54937;SDS011;52756;52.826;6.214;2024-03-08T00:12:28;32.03;;;19.03;;
54937;SDS011;52756;52.826;6.214;2024-03-08T00:14:53;30.40;;;18.33;;
54937;SDS011;52756;52.826;6.214;2024-03-08T00:17:20;28.77;;;17.73;;
54937;SDS011;52756;52.826;6.214;2024-03-08T00:19:48;30.30;;;19.93;;
54937;SDS011;52756;52.826;6.214;2024-03-08T00:22:15;28.90;;;19.30;;
54937;SDS011;52756;52.826;6.214;2024-03-08T00:24:41;27.33;;;17.67;;
54937;SDS011;52756;52.826;6.214;2024-03-08T00:27:07;30.10;;;18.70;;
54937;SDS011;52756;52.826;6.214;2024-03-08T00:29:34;31.10;;;19.20;;
54937;SDS011;52756;52.826;6.214;2024-03-08T00:32:00;29.07;;;17.67;;
54937;SDS011;52756;52.826;6.214;2024-03-08T00:34:26;36.07;;;19.27;;
54937;SDS011;52756;52.826;6.214;2024-03-08T00:36:51;33.93;;;19.27;;
54937;SDS011;52756;52.826;6.214;2024-03-08T00:39:17;30.93;;;19.63;;
54937;SDS011;52756;52.826;6.214;2024-03-08T00:41:45;31.93;;;19.07;;
54937;SDS011;52756;52.826;6.214;2024-03-08T00:44:11;30.00;;;18.93;;
54937;SDS011;52756;52.826;6.214;2024-03-08T00:46:37;33.47;;;19.57;;
54937;SDS011;52756;52.826;6.214;2024-03-08T00:49:03;31.33;;;18.47;;
54937;SDS011;52756;52.826;6.214;2024-03-08T00:51:29;30.67;;;17.83;;
54937;SDS011;52756;52.826;6.214;2024-03-08T00:53:54;31.53;;;19.47;;
54937;SDS011;52756;52.826;6.214;2024-03-08T00:56:20;33.67;;;20.00;;
54937;SDS011;52756;52.826;6.214;2024-03-08T00:58:46;33.53;;;20.67;;
54937;SDS011;52756;52.826;6.214;2024-03-08T01:01:12;29.77;;;19.30;;
54937;SDS011;52756;52.826;6.214;2024-03-08T01:03:45;35.00;;;19.73;;
54937;SDS011;52756;52.826;6.214;2024-03-08T01:06:11;33.40;;;19.23;;
54937;SDS011;52756;52.826;6.214;2024-03-08T01:08:37;35.67;;;21.40;;
54937;SDS011;52756;52.826;6.214;2024-03-08T01:11:07;32.17;;;19.90;;
54937;SDS011;52756;52.826;6.214;2024-03-08T01:13:37;30.60;;;19.47;;
54937;SDS011;52756;52.826;6.214;2024-03-08T01:16:03;37.40;;;21.03;;
54937;SDS011;52756;52.826;6.214;2024-03-08T01:18:29;29.83;;;19.03;;
54937;SDS011;52756;52.826;6.214;2024-03-08T01:20:55;35.73;;;20.33;;
54937;SDS011;52756;52.826;6.214;2024-03-08T01:23:21;38.40;;;20.60;;
54937;SDS011;52756;52.826;6.214;2024-03-08T01:25:46;34.00;;;20.77;;
54937;SDS011;52756;52.826;6.214;2024-03-08T01:28:21;35.00;;;20.70;;
54937;SDS011;52756;52.826;6.214;2024-03-08T01:30:50;31.40;;;19.60;;
54937;SDS011;52756;52.826;6.214;2024-03-08T01:33:20;31.63;;;20.03;;
54937;SDS011;52756;52.826;6.214;2024-03-08T01:35:50;37.67;;;21.67;;
54937;SDS011;52756;52.826;6.214;2024-03-08T01:38:16;37.43;;;21.37;;
54937;SDS011;52756;52.826;6.214;2024-03-08T01:40:42;31.27;;;20.07;;
54937;SDS011;52756;52.826;6.214;2024-03-08T01:45:43;32.87;;;20.43;;
54937;SDS011;52756;52.826;6.214;2024-03-08T01:48:09;34.90;;;20.97;;
54937;SDS011;52756;52.826;6.214;2024-03-08T01:50:35;32.70;;;22.13;;
54937;SDS011;52756;52.826;6.214;2024-03-08T01:53:01;33.53;;;20.70;;
54937;SDS011;52756;52.826;6.214;2024-03-08T01:55:28;36.17;;;21.27;;
54937;SDS011;52756;52.826;6.214;2024-03-08T01:57:54;33.50;;;20.73;;
54937;SDS011;52756;52.826;6.214;2024-03-08T02:00:20;31.60;;;20.37;;
54937;SDS011;52756;52.826;6.214;2024-03-08T02:02:46;35.73;;;21.83;;
54937;SDS011;52756;52.826;6.214;2024-03-08T02:05:13;37.50;;;21.07;;
54937;SDS011;52756;52.826;6.214;2024-03-08T02:07:42;34.27;;;21.67;;
54937;SDS011;52756;52.826;6.214;2024-03-08T02:10:09;38.73;;;21.63;;
54937;SDS011;52756;52.826;6.214;2024-03-08T02:12:35;34.93;;;21.20;;
54937;SDS011;52756;52.826;6.214;2024-03-08T02:15:03;35.00;;;20.93;;
54937;SDS011;52756;52.826;6.214;2024-03-08T02:17:29;36.90;;;21.17;;
54937;SDS011;52756;52.826;6.214;2024-03-08T02:19:55;38.23;;;21.73;;
54937;SDS011;52756;52.826;6.214;2024-03-08T02:22:21;37.43;;;21.27;;
54937;SDS011;52756;52.826;6.214;2024-03-08T02:24:47;39.63;;;21.97;;
54937;SDS011;52756;52.826;6.214;2024-03-08T02:27:13;34.57;;;21.23;;
54937;SDS011;52756;52.826;6.214;2024-03-08T02:29:38;37.60;;;22.00;;
54937;SDS011;52756;52.826;6.214;2024-03-08T02:32:08;35.43;;;20.60;;
54937;SDS011;52756;52.826;6.214;2024-03-08T02:34:34;35.77;;;22.03;;
54937;SDS011;52756;52.826;6.214;2024-03-08T02:37:00;36.13;;;21.40;;
54937;SDS011;52756;52.826;6.214;2024-03-08T02:39:25;37.23;;;22.37;;
54937;SDS011;52756;52.826;6.214;2024-03-08T02:41:51;35.83;;;21.10;;
54937;SDS011;52756;52.826;6.214;2024-03-08T02:44:16;35.47;;;21.00;;
54937;SDS011;52756;52.826;6.214;2024-03-08T02:46:42;36.63;;;22.43;;
54937;SDS011;52756;52.826;6.214;2024-03-08T02:49:07;38.13;;;22.90;;
54937;SDS011;52756;52.826;6.214;2024-03-08T02:51:33;34.27;;;21.23;;
54937;SDS011;52756;52.826;6.214;2024-03-08T02:54:00;36.97;;;22.53;;
54937;SDS011;52756;52.826;6.214;2024-03-08T02:56:26;37.87;;;21.60;;
54937;SDS011;52756;52.826;6.214;2024-03-08T02:58:51;34.77;;;20.90;;
54937;SDS011;52756;52.826;6.214;2024-03-08T03:01:17;38.17;;;22.53;;
54937;SDS011;52756;52.826;6.214;2024-03-08T03:03:45;38.17;;;22.77;;
54937;SDS011;52756;52.826;6.214;2024-03-08T03:06:12;31.50;;;20.73;;
54937;SDS011;52756;52.826;6.214;2024-03-08T03:08:38;40.07;;;21.47;;
54937;SDS011;52756;52.826;6.214;2024-03-08T03:11:03;37.13;;;22.97;;
54937;SDS011;52756;52.826;6.214;2024-03-08T03:13:29;39.03;;;21.40;;
54937;SDS011;52756;52.826;6.214;2024-03-08T03:15:54;31.93;;;21.23;;
54937;SDS011;52756;52.826;6.214;2024-03-08T03:18:22;32.50;;;20.53;;
54937;SDS011;52756;52.826;6.214;2024-03-08T03:20:48;33.97;;;21.43;;
54937;SDS011;52756;52.826;6.214;2024-03-08T03:23:14;35.70;;;21.70;;
54937;SDS011;52756;52.826;6.214;2024-03-08T03:25:46;34.67;;;21.17;;
54937;SDS011;52756;52.826;6.214;2024-03-08T03:28:12;38.10;;;22.57;;
54937;SDS011;52756;52.826;6.214;2024-03-08T03:30:43;37.80;;;21.67;;
54937;SDS011;52756;52.826;6.214;2024-03-08T03:33:12;32.20;;;21.47;;
54937;SDS011;52756;52.826;6.214;2024-03-08T03:35:39;38.93;;;20.57;;
54937;SDS011;52756;52.826;6.214;2024-03-08T03:38:06;35.87;;;22.70;;
54937;SDS011;52756;52.826;6.214;2024-03-08T03:40:35;33.67;;;21.60;;
54937;SDS011;52756;52.826;6.214;2024-03-08T03:43:02;36.23;;;21.90;;
54937;SDS011;52756;52.826;6.214;2024-03-08T03:45:28;36.43;;;23.17;;
54937;SDS011;52756;52.826;6.214;2024-03-08T03:47:54;36.70;;;21.57;;
54937;SDS011;52756;52.826;6.214;2024-03-08T03:50:20;34.90;;;21.73;;
54937;SDS011;52756;52.826;6.214;2024-03-08T03:52:47;34.60;;;21.57;;
54937;SDS011;52756;52.826;6.214;2024-03-08T03:55:13;33.73;;;21.10;;
54937;SDS011;52756;52.826;6.214;2024-03-08T03:57:39;36.50;;;22.40;;
54937;SDS011;52756;52.826;6.214;2024-03-08T04:00:06;33.60;;;20.93;;
54937;SDS011;52756;52.826;6.214;2024-03-08T04:02:36;33.77;;;20.93;;
54937;SDS011;52756;52.826;6.214;2024-03-08T04:05:09;27.17;;;18.85;;
54937;SDS011;52756;52.826;6.214;2024-03-08T04:07:36;32.20;;;21.10;;
54937;SDS011;52756;52.826;6.214;2024-03-08T04:10:02;30.77;;;20.37;;
54937;SDS011;52756;52.826;6.214;2024-03-08T04:12:34;37.27;;;21.83;;
54937;SDS011;52756;52.826;6.214;2024-03-08T04:15:00;34.87;;;21.17;;
54937;SDS011;52756;52.826;6.214;2024-03-08T04:17:26;35.17;;;21.10;;
54937;SDS011;52756;52.826;6.214;2024-03-08T04:19:53;32.70;;;20.97;;
54937;SDS011;52756;52.826;6.214;2024-03-08T04:22:19;39.63;;;21.83;;
54937;SDS011;52756;52.826;6.214;2024-03-08T04:24:48;33.63;;;21.20;;
54937;SDS011;52756;52.826;6.214;2024-03-08T04:27:14;33.77;;;20.50;;
54937;SDS011;52756;52.826;6.214;2024-03-08T04:29:39;29.23;;;19.20;;
54937;SDS011;52756;52.826;6.214;2024-03-08T04:32:06;35.17;;;21.47;;
54937;SDS011;52756;52.826;6.214;2024-03-08T04:34:34;37.57;;;21.87;;
54937;SDS011;52756;52.826;6.214;2024-03-08T04:37:00;35.67;;;21.60;;
54937;SDS011;52756;52.826;6.214;2024-03-08T04:39:26;32.63;;;20.43;;
54937;SDS011;52756;52.826;6.214;2024-03-08T04:41:56;37.87;;;22.47;;
54937;SDS011;52756;52.826;6.214;2024-03-08T04:44:26;34.27;;;20.87;;
54937;SDS011;52756;52.826;6.214;2024-03-08T04:46:52;33.47;;;20.70;;
54937;SDS011;52756;52.826;6.214;2024-03-08T04:49:17;33.03;;;21.50;;
54937;SDS011;52756;52.826;6.214;2024-03-08T04:51:43;35.73;;;21.53;;
54937;SDS011;52756;52.826;6.214;2024-03-08T04:54:10;34.83;;;21.23;;
54937;SDS011;52756;52.826;6.214;2024-03-08T04:56:35;34.17;;;20.63;;
54937;SDS011;52756;52.826;6.214;2024-03-08T04:59:01;35.33;;;21.87;;
54937;SDS011;52756;52.826;6.214;2024-03-08T05:01:28;35.60;;;23.10;;
54937;SDS011;52756;52.826;6.214;2024-03-08T05:03:53;37.23;;;21.53;;
54937;SDS011;52756;52.826;6.214;2024-03-08T05:06:20;38.73;;;23.37;;
54937;SDS011;52756;52.826;6.214;2024-03-08T05:08:46;35.13;;;21.10;;
54937;SDS011;52756;52.826;6.214;2024-03-08T05:11:12;35.13;;;22.37;;
54937;SDS011;52756;52.826;6.214;2024-03-08T05:13:40;34.83;;;21.40;;
54937;SDS011;52756;52.826;6.214;2024-03-08T05:16:06;40.97;;;22.83;;
54937;SDS011;52756;52.826;6.214;2024-03-08T05:18:33;32.10;;;20.70;;
54937;SDS011;52756;52.826;6.214;2024-03-08T05:20:59;33.40;;;21.93;;
54937;SDS011;52756;52.826;6.214;2024-03-08T05:23:25;38.20;;;22.63;;
54937;SDS011;52756;52.826;6.214;2024-03-08T05:25:50;35.37;;;21.47;;
54937;SDS011;52756;52.826;6.214;2024-03-08T05:28:16;35.17;;;21.50;;
54937;SDS011;52756;52.826;6.214;2024-03-08T05:30:42;31.60;;;20.67;;
54937;SDS011;52756;52.826;6.214;2024-03-08T05:33:08;33.40;;;20.43;;
54937;SDS011;52756;52.826;6.214;2024-03-08T05:35:39;37.90;;;21.43;;
54937;SDS011;52756;52.826;6.214;2024-03-08T05:38:08;34.37;;;21.30;;
54937;SDS011;52756;52.826;6.214;2024-03-08T05:40:35;32.23;;;20.80;;
54937;SDS011;52756;52.826;6.214;2024-03-08T05:43:00;37.30;;;21.27;;
54937;SDS011;52756;52.826;6.214;2024-03-08T05:45:26;36.20;;;21.63;;
54937;SDS011;52756;52.826;6.214;2024-03-08T05:47:52;33.47;;;20.40;;
54937;SDS011;52756;52.826;6.214;2024-03-08T05:50:18;34.43;;;21.90;;
54937;SDS011;52756;52.826;6.214;2024-03-08T05:52:46;30.90;;;20.50;;
54937;SDS011;52756;52.826;6.214;2024-03-08T05:55:15;36.10;;;22.03;;
54937;SDS011;52756;52.826;6.214;2024-03-08T05:57:41;32.03;;;21.60;;
54937;SDS011;52756;52.826;6.214;2024-03-08T06:00:08;33.83;;;20.63;;
54937;SDS011;52756;52.826;6.214;2024-03-08T06:02:36;34.83;;;21.13;;
54937;SDS011;52756;52.826;6.214;2024-03-08T06:05:07;36.10;;;23.03;;
54937;SDS011;52756;52.826;6.214;2024-03-08T06:07:35;33.80;;;21.03;;
54937;SDS011;52756;52.826;6.214;2024-03-08T06:10:01;34.23;;;21.03;;
54937;SDS011;52756;52.826;6.214;2024-03-08T06:12:28;36.60;;;22.77;;
54937;SDS011;52756;52.826;6.214;2024-03-08T06:14:57;39.53;;;23.03;;
54937;SDS011;52756;52.826;6.214;2024-03-08T06:17:26;33.30;;;21.37;;
54937;SDS011;52756;52.826;6.214;2024-03-08T06:19:52;33.07;;;21.10;;
54937;SDS011;52756;52.826;6.214;2024-03-08T06:22:19;39.13;;;22.23;;
54937;SDS011;52756;52.826;6.214;2024-03-08T06:24:45;31.83;;;21.67;;
54937;SDS011;52756;52.826;6.214;2024-03-08T06:27:12;35.73;;;22.13;;
54937;SDS011;52756;52.826;6.214;2024-03-08T06:29:39;37.27;;;21.97;;
54937;SDS011;52756;52.826;6.214;2024-03-08T06:32:07;35.77;;;21.43;;
54937;SDS011;52756;52.826;6.214;2024-03-08T06:34:33;39.53;;;22.37;;
54937;SDS011;52756;52.826;6.214;2024-03-08T06:37:02;36.43;;;21.40;;
54937;SDS011;52756;52.826;6.214;2024-03-08T06:39:28;38.80;;;22.37;;
54937;SDS011;52756;52.826;6.214;2024-03-08T06:41:59;31.87;;;21.40;;
54937;SDS011;52756;52.826;6.214;2024-03-08T06:44:25;32.80;;;21.00;;
54937;SDS011;52756;52.826;6.214;2024-03-08T06:46:52;39.20;;;21.40;;
54937;SDS011;52756;52.826;6.214;2024-03-08T06:49:18;38.57;;;22.83;;
54937;SDS011;52756;52.826;6.214;2024-03-08T06:51:44;35.83;;;21.30;;
54937;SDS011;52756;52.826;6.214;2024-03-08T06:54:10;39.83;;;22.70;;
54937;SDS011;52756;52.826;6.214;2024-03-08T06:56:36;37.83;;;21.90;;
54937;SDS011;52756;52.826;6.214;2024-03-08T06:59:02;37.57;;;22.50;;
54937;SDS011;52756;52.826;6.214;2024-03-08T07:01:31;36.27;;;21.77;;
54937;SDS011;52756;52.826;6.214;2024-03-08T07:03:59;35.20;;;22.00;;
54937;SDS011;52756;52.826;6.214;2024-03-08T07:06:27;36.50;;;20.60;;
54937;SDS011;52756;52.826;6.214;2024-03-08T07:08:53;33.67;;;20.90;;
54937;SDS011;52756;52.826;6.214;2024-03-08T07:11:19;36.10;;;22.23;;
54937;SDS011;52756;52.826;6.214;2024-03-08T07:13:45;35.77;;;21.73;;
54937;SDS011;52756;52.826;6.214;2024-03-08T07:16:11;31.03;;;20.87;;
54937;SDS011;52756;52.826;6.214;2024-03-08T07:18:37;36.17;;;21.90;;
54937;SDS011;52756;52.826;6.214;2024-03-08T07:21:08;36.97;;;21.40;;
54937;SDS011;52756;52.826;6.214;2024-03-08T07:23:35;36.17;;;22.17;;
54937;SDS011;52756;52.826;6.214;2024-03-08T07:26:22;33.30;;;21.13;;
54937;SDS011;52756;52.826;6.214;2024-03-08T07:28:48;33.27;;;21.70;;
54937;SDS011;52756;52.826;6.214;2024-03-08T07:31:14;36.07;;;21.90;;
54937;SDS011;52756;52.826;6.214;2024-03-08T07:33:51;35.33;;;21.37;;
54937;SDS011;52756;52.826;6.214;2024-03-08T07:36:18;34.80;;;22.10;;
54937;SDS011;52756;52.826;6.214;2024-03-08T07:38:44;34.07;;;21.40;;
54937;SDS011;52756;52.826;6.214;2024-03-08T07:41:12;38.37;;;21.40;;
54937;SDS011;52756;52.826;6.214;2024-03-08T07:43:38;33.67;;;21.13;;
54937;SDS011;52756;52.826;6.214;2024-03-08T07:46:03;34.43;;;21.63;;
54937;SDS011;52756;52.826;6.214;2024-03-08T07:48:29;34.13;;;20.37;;
54937;SDS011;52756;52.826;6.214;2024-03-08T07:50:55;37.23;;;22.63;;
54937;SDS011;52756;52.826;6.214;2024-03-08T07:53:21;34.40;;;20.73;;
54937;SDS011;52756;52.826;6.214;2024-03-08T07:55:49;35.60;;;21.40;;
54937;SDS011;52756;52.826;6.214;2024-03-08T07:58:15;31.67;;;21.20;;
54937;SDS011;52756;52.826;6.214;2024-03-08T08:00:42;39.27;;;23.13;;
54937;SDS011;52756;52.826;6.214;2024-03-08T08:03:08;32.73;;;20.07;;
54937;SDS011;52756;52.826;6.214;2024-03-08T08:05:35;33.27;;;21.60;;
54937;SDS011;52756;52.826;6.214;2024-03-08T08:08:04;36.27;;;22.10;;
54937;SDS011;52756;52.826;6.214;2024-03-08T08:10:31;33.07;;;21.13;;
54937;SDS011;52756;52.826;6.214;2024-03-08T08:12:58;31.53;;;20.93;;
54937;SDS011;52756;52.826;6.214;2024-03-08T08:15:24;31.92;;;20.27;;
54937;SDS011;52756;52.826;6.214;2024-03-08T08:17:49;35.00;;;21.25;;
54937;SDS011;52756;52.826;6.214;2024-03-08T08:20:17;31.88;;;21.27;;
54937;SDS011;52756;52.826;6.214;2024-03-08T08:22:43;32.25;;;21.45;;
54937;SDS011;52756;52.826;6.214;2024-03-08T08:25:09;32.47;;;20.52;;
54937;SDS011;52756;52.826;6.214;2024-03-08T08:27:38;32.13;;;21.13;;
54937;SDS011;52756;52.826;6.214;2024-03-08T08:30:10;31.65;;;20.02;;
54937;SDS011;52756;52.826;6.214;2024-03-08T08:32:36;33.28;;;21.33;;
54937;SDS011;52756;52.826;6.214;2024-03-08T08:35:03;28.73;;;20.08;;
54937;SDS011;52756;52.826;6.214;2024-03-08T08:37:30;32.13;;;20.60;;
54937;SDS011;52756;52.826;6.214;2024-03-08T08:39:56;28.63;;;20.50;;
54937;SDS011;52756;52.826;6.214;2024-03-08T08:42:22;27.00;;;19.17;;
54937;SDS011;52756;52.826;6.214;2024-03-08T08:44:48;27.88;;;20.55;;
54937;SDS011;52756;52.826;6.214;2024-03-08T08:47:15;28.20;;;19.33;;
54937;SDS011;52756;52.826;6.214;2024-03-08T08:49:44;31.23;;;20.85;;
54937;SDS011;52756;52.826;6.214;2024-03-08T08:52:14;28.98;;;20.17;;
54937;SDS011;52756;52.826;6.214;2024-03-08T08:54:41;31.77;;;20.75;;
54937;SDS011;52756;52.826;6.214;2024-03-08T08:57:07;32.90;;;21.58;;
54937;SDS011;52756;52.826;6.214;2024-03-08T08:59:33;28.77;;;20.30;;
54937;SDS011;52756;52.826;6.214;2024-03-08T09:02:01;30.40;;;20.70;;
54937;SDS011;52756;52.826;6.214;2024-03-08T09:04:29;29.90;;;20.67;;
54937;SDS011;52756;52.826;6.214;2024-03-08T09:06:58;33.20;;;21.90;;
54937;SDS011;52756;52.826;6.214;2024-03-08T09:09:23;29.00;;;19.08;;
54937;SDS011;52756;52.826;6.214;2024-03-08T09:11:50;27.95;;;20.27;;
54937;SDS011;52756;52.826;6.214;2024-03-08T09:14:16;28.17;;;19.90;;
54937;SDS011;52756;52.826;6.214;2024-03-08T09:16:42;32.00;;;21.15;;
54937;SDS011;52756;52.826;6.214;2024-03-08T09:19:07;31.33;;;21.23;;
54937;SDS011;52756;52.826;6.214;2024-03-08T09:21:35;30.25;;;21.05;;
54937;SDS011;52756;52.826;6.214;2024-03-08T09:24:01;30.50;;;21.52;;
54937;SDS011;52756;52.826;6.214;2024-03-08T09:26:27;28.50;;;21.10;;
54937;SDS011;52756;52.826;6.214;2024-03-08T09:28:53;33.30;;;22.20;;
54937;SDS011;52756;52.826;6.214;2024-03-08T09:31:20;32.13;;;21.73;;
54937;SDS011;52756;52.826;6.214;2024-03-08T09:33:46;30.48;;;23.23;;
54937;SDS011;52756;52.826;6.214;2024-03-08T09:36:14;31.65;;;21.85;;
54937;SDS011;52756;52.826;6.214;2024-03-08T09:38:40;31.17;;;22.33;;
54937;SDS011;52756;52.826;6.214;2024-03-08T09:41:09;31.92;;;22.13;;
54937;SDS011;52756;52.826;6.214;2024-03-08T09:43:38;33.25;;;22.40;;
54937;SDS011;52756;52.826;6.214;2024-03-08T09:46:04;33.05;;;22.60;;
54937;SDS011;52756;52.826;6.214;2024-03-08T09:48:31;33.83;;;23.58;;
54937;SDS011;52756;52.826;6.214;2024-03-08T09:50:57;28.67;;;21.67;;
54937;SDS011;52756;52.826;6.214;2024-03-08T09:53:24;31.65;;;22.42;;
54937;SDS011;52756;52.826;6.214;2024-03-08T09:55:49;33.50;;;23.38;;
54937;SDS011;52756;52.826;6.214;2024-03-08T09:58:15;33.15;;;22.42;;
54937;SDS011;52756;52.826;6.214;2024-03-08T10:00:53;29.30;;;22.23;;
54937;SDS011;52756;52.826;6.214;2024-03-08T10:03:19;30.90;;;22.13;;
54937;SDS011;52756;52.826;6.214;2024-03-08T10:05:45;34.55;;;23.17;;
54937;SDS011;52756;52.826;6.214;2024-03-08T10:08:11;31.77;;;21.77;;
54937;SDS011;52756;52.826;6.214;2024-03-08T10:10:38;32.22;;;23.73;;
54937;SDS011;52756;52.826;6.214;2024-03-08T10:13:05;32.67;;;24.13;;
54937;SDS011;52756;52.826;6.214;2024-03-08T10:15:32;34.13;;;23.02;;
54937;SDS011;52756;52.826;6.214;2024-03-08T10:18:00;33.78;;;22.98;;
54937;SDS011;52756;52.826;6.214;2024-03-08T10:20:27;33.95;;;23.60;;
54937;SDS011;52756;52.826;6.214;2024-03-08T10:22:58;31.45;;;23.30;;
54937;SDS011;52756;52.826;6.214;2024-03-08T10:25:25;30.55;;;22.42;;
54937;SDS011;52756;52.826;6.214;2024-03-08T10:27:50;34.90;;;23.73;;
54937;SDS011;52756;52.826;6.214;2024-03-08T10:30:16;32.53;;;23.40;;
54937;SDS011;52756;52.826;6.214;2024-03-08T10:32:46;30.40;;;23.50;;
54937;SDS011;52756;52.826;6.214;2024-03-08T10:35:13;31.55;;;23.02;;
54937;SDS011;52756;52.826;6.214;2024-03-08T10:37:46;32.88;;;23.08;;
54937;SDS011;52756;52.826;6.214;2024-03-08T10:40:23;31.85;;;23.13;;
54937;SDS011;52756;52.826;6.214;2024-03-08T10:42:51;30.58;;;22.48;;
54937;SDS011;52756;52.826;6.214;2024-03-08T10:48:24;30.17;;;21.95;;
54937;SDS011;52756;52.826;6.214;2024-03-08T10:51:02;33.35;;;24.33;;
54937;SDS011;52756;52.826;6.214;2024-03-08T10:53:28;31.15;;;24.00;;
54937;SDS011;52756;52.826;6.214;2024-03-08T10:55:55;29.25;;;21.98;;
54937;SDS011;52756;52.826;6.214;2024-03-08T10:58:25;31.58;;;22.70;;
54937;SDS011;52756;52.826;6.214;2024-03-08T11:00:54;30.77;;;22.83;;
54937;SDS011;52756;52.826;6.214;2024-03-08T11:06:06;29.90;;;22.02;;
54937;SDS011;52756;52.826;6.214;2024-03-08T11:08:41;30.45;;;22.73;;
54937;SDS011;52756;52.826;6.214;2024-03-08T11:11:23;31.80;;;23.45;;
54937;SDS011;52756;52.826;6.214;2024-03-08T11:13:59;29.85;;;21.58;;
54937;SDS011;52756;52.826;6.214;2024-03-08T11:18:59;34.20;;;23.73;;
54937;SDS011;52756;52.826;6.214;2024-03-08T11:21:29;32.72;;;22.83;;
54937;SDS011;52756;52.826;6.214;2024-03-08T11:23:59;31.58;;;23.15;;
54937;SDS011;52756;52.826;6.214;2024-03-08T11:26:26;29.25;;;23.05;;
54937;SDS011;52756;52.826;6.214;2024-03-08T11:28:51;27.25;;;21.33;;
54937;SDS011;52756;52.826;6.214;2024-03-08T11:33:47;30.88;;;22.02;;
54937;SDS011;52756;52.826;6.214;2024-03-08T11:36:21;28.98;;;22.00;;
54937;SDS011;52756;52.826;6.214;2024-03-08T11:38:49;32.92;;;21.52;;
54937;SDS011;52756;52.826;6.214;2024-03-08T11:41:21;28.67;;;21.25;;
54937;SDS011;52756;52.826;6.214;2024-03-08T11:43:49;30.60;;;22.45;;
54937;SDS011;52756;52.826;6.214;2024-03-08T11:46:16;30.63;;;22.45;;
54937;SDS011;52756;52.826;6.214;2024-03-08T11:48:43;27.45;;;20.60;;
54937;SDS011;52756;52.826;6.214;2024-03-08T11:51:12;26.38;;;19.85;;
54937;SDS011;52756;52.826;6.214;2024-03-08T11:53:39;29.02;;;21.63;;
54937;SDS011;52756;52.826;6.214;2024-03-08T11:56:09;28.00;;;21.77;;
54937;SDS011;52756;52.826;6.214;2024-03-08T11:58:37;26.80;;;22.05;;
54937;SDS011;52756;52.826;6.214;2024-03-08T12:01:05;28.15;;;21.58;;
54937;SDS011;52756;52.826;6.214;2024-03-08T12:03:42;25.98;;;20.80;;
54937;SDS011;52756;52.826;6.214;2024-03-08T12:06:08;26.88;;;20.35;;
54937;SDS011;52756;52.826;6.214;2024-03-08T12:08:37;28.42;;;21.02;;
54937;SDS011;52756;52.826;6.214;2024-03-08T12:11:03;26.40;;;20.95;;
54937;SDS011;52756;52.826;6.214;2024-03-08T12:13:30;27.23;;;19.55;;
54937;SDS011;52756;52.826;6.214;2024-03-08T12:16:03;27.00;;;19.35;;
54937;SDS011;52756;52.826;6.214;2024-03-08T12:18:33;27.38;;;20.10;;
54937;SDS011;52756;52.826;6.214;2024-03-08T12:21:06;26.02;;;19.88;;
54937;SDS011;52756;52.826;6.214;2024-03-08T12:23:36;25.23;;;20.70;;
54937;SDS011;52756;52.826;6.214;2024-03-08T12:26:14;27.70;;;20.25;;
54937;SDS011;52756;52.826;6.214;2024-03-08T12:28:43;29.88;;;19.50;;
54937;SDS011;52756;52.826;6.214;2024-03-08T12:31:11;26.50;;;19.90;;
54937;SDS011;52756;52.826;6.214;2024-03-08T12:33:47;25.52;;;18.95;;
54937;SDS011;52756;52.826;6.214;2024-03-08T12:36:14;23.92;;;19.13;;
54937;SDS011;52756;52.826;6.214;2024-03-08T12:38:43;28.20;;;19.95;;
54937;SDS011;52756;52.826;6.214;2024-03-08T12:41:13;25.90;;;18.40;;
54937;SDS011;52756;52.826;6.214;2024-03-08T12:43:45;27.10;;;20.13;;
54937;SDS011;52756;52.826;6.214;2024-03-08T12:46:16;27.83;;;20.02;;
54937;SDS011;52756;52.826;6.214;2024-03-08T12:48:45;25.65;;;19.40;;
54937;SDS011;52756;52.826;6.214;2024-03-08T12:51:15;25.40;;;19.33;;
54937;SDS011;52756;52.826;6.214;2024-03-08T12:53:43;25.70;;;19.38;;
54937;SDS011;52756;52.826;6.214;2024-03-08T12:56:09;25.65;;;19.65;;
54937;SDS011;52756;52.826;6.214;2024-03-08T12:58:36;25.35;;;19.20;;
54937;SDS011;52756;52.826;6.214;2024-03-08T13:01:05;26.65;;;19.55;;
54937;SDS011;52756;52.826;6.214;2024-03-08T13:03:32;30.00;;;20.92;;
54937;SDS011;52756;52.826;6.214;2024-03-08T13:06:00;26.63;;;18.77;;
54937;SDS011;52756;52.826;6.214;2024-03-08T13:08:33;28.42;;;21.35;;
54937;SDS011;52756;52.826;6.214;2024-03-08T13:11:06;24.92;;;18.67;;
54937;SDS011;52756;52.826;6.214;2024-03-08T13:13:32;25.48;;;19.38;;
54937;SDS011;52756;52.826;6.214;2024-03-08T13:16:01;23.27;;;17.58;;
54937;SDS011;52756;52.826;6.214;2024-03-08T13:18:33;23.80;;;18.70;;
54937;SDS011;52756;52.826;6.214;2024-03-08T13:20:58;24.65;;;18.70;;
54937;SDS011;52756;52.826;6.214;2024-03-08T13:23:24;24.80;;;18.40;;
54937;SDS011;52756;52.826;6.214;2024-03-08T13:25:50;23.83;;;18.23;;
54937;SDS011;52756;52.826;6.214;2024-03-08T13:28:15;21.42;;;17.08;;
54937;SDS011;52756;52.826;6.214;2024-03-08T13:30:44;23.00;;;18.10;;
54937;SDS011;52756;52.826;6.214;2024-03-08T13:33:10;22.25;;;16.92;;
54937;SDS011;52756;52.826;6.214;2024-03-08T13:35:36;25.48;;;17.98;;
54937;SDS011;52756;52.826;6.214;2024-03-08T13:38:03;22.42;;;17.25;;
54937;SDS011;52756;52.826;6.214;2024-03-08T13:40:29;25.38;;;17.70;;
54937;SDS011;52756;52.826;6.214;2024-03-08T13:42:56;22.30;;;16.83;;
54937;SDS011;52756;52.826;6.214;2024-03-08T13:45:21;22.58;;;18.20;;
54937;SDS011;52756;52.826;6.214;2024-03-08T13:47:50;23.73;;;19.02;;
54937;SDS011;52756;52.826;6.214;2024-03-08T13:50:19;23.52;;;17.23;;
54937;SDS011;52756;52.826;6.214;2024-03-08T13:52:49;22.10;;;17.00;;
54937;SDS011;52756;52.826;6.214;2024-03-08T13:55:23;22.33;;;17.27;;
54937;SDS011;52756;52.826;6.214;2024-03-08T13:57:52;23.58;;;18.70;;
54937;SDS011;52756;52.826;6.214;2024-03-08T14:00:18;21.45;;;17.02;;
54937;SDS011;52756;52.826;6.214;2024-03-08T14:02:47;24.85;;;19.33;;
54937;SDS011;52756;52.826;6.214;2024-03-08T14:05:14;25.40;;;19.38;;
54937;SDS011;52756;52.826;6.214;2024-03-08T14:07:41;24.98;;;18.73;;
54937;SDS011;52756;52.826;6.214;2024-03-08T14:10:07;22.88;;;17.92;;
54937;SDS011;52756;52.826;6.214;2024-03-08T14:12:34;23.63;;;17.35;;
54937;SDS011;52756;52.826;6.214;2024-03-08T14:15:01;22.33;;;18.45;;
54937;SDS011;52756;52.826;6.214;2024-03-08T14:17:27;23.27;;;18.58;;
54937;SDS011;52756;52.826;6.214;2024-03-08T14:19:56;22.75;;;17.90;;
54937;SDS011;52756;52.826;6.214;2024-03-08T14:22:21;22.77;;;17.35;;
54937;SDS011;52756;52.826;6.214;2024-03-08T14:24:48;22.55;;;18.58;;
54937;SDS011;52756;52.826;6.214;2024-03-08T14:27:14;25.48;;;18.33;;
54937;SDS011;52756;52.826;6.214;2024-03-08T14:29:42;24.05;;;19.10;;
54937;SDS011;52756;52.826;6.214;2024-03-08T14:32:08;24.00;;;18.55;;
54937;SDS011;52756;52.826;6.214;2024-03-08T14:34:35;22.65;;;18.23;;